Time;durP1;ratioP1;P1;durP2;ratioP2;P2;SDS_P1;SDS_P2;PMS_P1;PMS_P2;Temp;Humidity;BMP_temperature;BMP_pressure;BME280_temperature;BME280_humidity;BME280_pressure;Samples;Min_cycle;Max_cycle;Signal;HPM_P1;HPM_P2
2021/07/11 00:00:34;;;;;;;4.72;4.43;;;;;;;;;;5072874;28;20205;-82
2021/07/11 00:03:02;;;;;;;4.47;3.58;;;;;;;;;;5072802;28;20232;-83
2021/07/11 00:05:30;;;;;;;4.10;3.72;;;;;;;;;;5072773;28;20185;-82
2021/07/11 00:07:57;;;;;;;3.53;3.33;;;;;;;;;;5072937;28;20566;-82
2021/07/11 00:10:27;;;;;;;4.00;3.70;;;;;;;;;;5072624;28;20209;-83
2021/07/11 00:12:55;;;;;;;3.75;3.45;;;;;;;;;;5072515;28;20220;-82
2021/07/11 00:15:26;;;;;;;4.43;4.03;;;;;;;;;;5072840;28;20185;-83
2021/07/11 00:17:54;;;;;;;3.83;3.53;;;;;;;;;;5072664;28;20243;-83
2021/07/11 00:20:24;;;;;;;4.05;3.55;;;;;;;;;;5072774;28;20288;-83
2021/07/11 00:22:51;;;;;;;3.75;3.45;;;;;;;;;;5072669;28;20607;-83
2021/07/11 00:25:19;;;;;;;3.63;3.42;;;;;;;;;;5072674;28;20188;-83
2021/07/11 00:27:48;;;;;;;3.70;3.40;;;;;;;;;;5072730;28;20196;-82
2021/07/11 00:30:17;;;;;;;4.35;3.95;;;;;;;;;;5072502;28;20216;-82
2021/07/11 00:32:46;;;;;;;3.75;3.55;;;;;;;;;;5072555;28;20225;-83
2021/07/11 00:35:13;;;;;;;4.68;4.28;;;;;;;;;;5072490;28;20194;-83
2021/07/11 00:37:41;;;;;;;3.10;2.90;;;;;;;;;;5071266;28;20212;-83
2021/07/11 00:40:11;;;;;;;3.75;3.45;;;;;;;;;;5072175;28;20639;-82
2021/07/11 00:42:40;;;;;;;3.60;3.30;;;;;;;;;;5052125;28;20913;-83
2021/07/11 00:45:11;;;;;;;4.05;3.55;;;;;;;;;;5052088;28;20264;-82
2021/07/11 00:47:41;;;;;;;3.65;3.42;;;;;;;;;;5051956;28;20217;-83
2021/07/11 00:50:12;;;;;;;3.78;3.47;;;;;;;;;;5052238;28;20189;-83
2021/07/11 00:52:39;;;;;;;4.05;3.75;;;;;;;;;;5051716;28;20241;-82
2021/07/11 00:55:09;;;;;;;3.58;3.38;;;;;;;;;;5054884;28;20685;-83
2021/07/11 00:57:37;;;;;;;3.85;3.55;;;;;;;;;;5071986;28;20636;-83
2021/07/11 01:00:09;;;;;;;4.78;4.38;;;;;;;;;;5071815;28;20811;-83
2021/07/11 01:02:45;;;;;;;4.30;4.00;;;;;;;;;;5072199;28;20228;-83
2021/07/11 01:05:14;;;;;;;3.80;3.50;;;;;;;;;;5072053;28;20222;-83
2021/07/11 01:07:47;;;;;;;3.92;3.63;;;;;;;;;;5071904;28;20205;-83
2021/07/11 01:10:24;;;;;;;3.70;3.50;;;;;;;;;;5071995;28;20242;-83
2021/07/11 01:12:55;;;;;;;3.30;3.10;;;;;;;;;;5072040;28;20216;-83
2021/07/11 01:15:25;;;;;;;3.65;3.35;;;;;;;;;;5072101;28;20566;-83
2021/07/11 01:17:54;;;;;;;3.17;2.97;;;;;;;;;;5071843;28;20656;-83
2021/07/11 01:20:38;;;;;;;2.65;2.45;;;;;;;;;;5072104;28;20191;-83
2021/07/11 01:23:09;;;;;;;2.92;2.72;;;;;;;;;;5071716;28;20784;-83
2021/07/11 01:25:42;;;;;;;3.40;3.20;;;;;;;;;;5071954;28;20204;-83
2021/07/11 01:28:13;;;;;;;11.32;4.75;;;;;;;;;;5071988;28;20181;-83
2021/07/11 01:30:41;;;;;;;3.90;3.67;;;;;;;;;;5071518;28;20181;-83
2021/07/11 01:33:10;;;;;;;3.30;3.10;;;;;;;;;;5071817;28;20235;-83
2021/07/11 01:35:39;;;;;;;4.20;3.33;;;;;;;;;;5071501;28;20177;-83
2021/07/11 01:38:07;;;;;;;3.42;3.20;;;;;;;;;;5071847;28;20195;-83
2021/07/11 01:40:38;;;;;;;3.83;3.53;;;;;;;;;;5071852;28;20185;-83
2021/07/11 01:43:06;;;;;;;4.63;4.22;;;;;;;;;;5071445;28;20260;-83
2021/07/11 01:45:35;;;;;;;3.92;3.63;;;;;;;;;;5071329;28;20685;-83
2021/07/11 01:48:06;;;;;;;3.70;3.50;;;;;;;;;;5071399;28;20212;-83
2021/07/11 01:50:34;;;;;;;4.55;4.25;;;;;;;;;;5074595;28;20196;-83
2021/07/11 01:53:01;;;;;;;3.83;3.53;;;;;;;;;;5075350;28;20217;-82
2021/07/11 01:55:29;;;;;;;4.25;3.95;;;;;;;;;;5075481;28;20189;-83
2021/07/11 01:57:58;;;;;;;4.60;4.25;;;;;;;;;;5075468;28;20277;-83
2021/07/11 02:00:26;;;;;;;4.80;4.50;;;;;;;;;;5075302;28;20189;-83
2021/07/11 02:02:53;;;;;;;4.30;4.00;;;;;;;;;;5075289;28;20240;-83
2021/07/11 02:05:21;;;;;;;4.10;3.88;;;;;;;;;;5075068;28;20197;-83
2021/07/11 02:07:49;;;;;;;3.92;3.60;;;;;;;;;;5075193;28;20200;-82
2021/07/11 02:10:18;;;;;;;4.28;3.88;;;;;;;;;;5075200;28;20189;-82
2021/07/11 02:12:50;;;;;;;3.88;3.58;;;;;;;;;;5074638;28;20707;-82
2021/07/11 02:15:19;;;;;;;3.28;3.08;;;;;;;;;;5075123;28;20567;-83
2021/07/11 02:17:49;;;;;;;2.47;2.28;;;;;;;;;;5074759;28;20665;-82
2021/07/11 02:20:17;;;;;;;3.30;3.10;;;;;;;;;;5075350;28;20535;-82
2021/07/11 02:22:47;;;;;;;2.55;2.35;;;;;;;;;;5074690;28;20216;-82
2021/07/11 02:25:20;;;;;;;2.33;2.22;;;;;;;;;;5074848;28;20186;-82
2021/07/11 02:27:49;;;;;;;2.55;2.45;;;;;;;;;;5073907;28;20223;-82
2021/07/11 02:30:23;;;;;;;2.58;2.38;;;;;;;;;;5073582;28;20571;-82
2021/07/11 02:32:51;;;;;;;1.98;1.88;;;;;;;;;;5074371;28;20235;-82
2021/07/11 02:35:27;;;;;;;2.78;2.63;;;;;;;;;;5074589;28;20555;-82
2021/07/11 02:37:55;;;;;;;2.80;2.60;;;;;;;;;;5074757;28;20189;-82
2021/07/11 02:40:23;;;;;;;3.00;2.80;;;;;;;;;;5074405;28;20215;-82
2021/07/11 02:42:54;;;;;;;2.65;2.53;;;;;;;;;;5074281;28;20228;-82
2021/07/11 02:45:23;;;;;;;2.58;2.38;;;;;;;;;;5074567;28;20189;-83
2021/07/11 02:47:51;;;;;;;2.35;2.25;;;;;;;;;;5074478;28;20197;-83
2021/07/11 02:50:19;;;;;;;2.50;2.33;;;;;;;;;;5074480;28;20196;-82
2021/07/11 02:52:47;;;;;;;2.90;2.70;;;;;;;;;;5073778;28;20228;-82
2021/07/11 02:55:18;;;;;;;2.90;2.70;;;;;;;;;;5074059;28;20182;-83
2021/07/11 02:57:58;;;;;;;3.20;3.00;;;;;;;;;;5074406;28;20182;-83
2021/07/11 03:00:27;;;;;;;3.83;3.53;;;;;;;;;;5073826;28;20189;-83
2021/07/11 03:02:56;;;;;;;4.78;3.83;;;;;;;;;;5074146;28;20224;-83
2021/07/11 03:05:25;;;;;;;3.42;3.22;;;;;;;;;;5074195;28;20189;-83
2021/07/11 03:07:53;;;;;;;3.35;3.05;;;;;;;;;;5073485;28;20675;-82
2021/07/11 03:10:21;;;;;;;3.10;2.90;;;;;;;;;;5073308;28;20212;-83
2021/07/11 03:12:52;;;;;;;3.65;3.45;;;;;;;;;;5073949;28;20220;-82
2021/07/11 03:15:20;;;;;;;3.47;3.28;;;;;;;;;;5074021;28;20189;-82
2021/07/11 03:17:49;;;;;;;2.58;2.45;;;;;;;;;;5073634;28;20651;-83
2021/07/11 03:20:16;;;;;;;3.30;3.00;;;;;;;;;;5072931;28;20200;-83
2021/07/11 03:22:45;;;;;;;2.50;2.30;;;;;;;;;;5073805;28;20227;-83
2021/07/11 03:25:14;;;;;;;3.17;2.90;;;;;;;;;;5076886;28;20189;-83
2021/07/11 03:27:42;;;;;;;2.65;2.50;;;;;;;;;;5080379;28;20643;-83
2021/07/11 03:30:13;;;;;;;3.72;3.42;;;;;;;;;;5083695;28;20201;-83
2021/07/11 03:32:42;;;;;;;2.80;2.60;;;;;;;;;;5090932;28;20247;-83
2021/07/11 03:35:14;;;;;;;3.33;3.13;;;;;;;;;;5089270;28;20197;-82
2021/07/11 03:37:45;;;;;;;2.88;2.67;;;;;;;;;;5090092;28;20201;-82
2021/07/11 03:40:19;;;;;;;2.50;2.40;;;;;;;;;;5080737;28;20185;-82
2021/07/11 03:42:46;;;;;;;3.92;3.28;;;;;;;;;;5073640;28;20791;-82
2021/07/11 03:45:16;;;;;;;3.10;2.90;;;;;;;;;;5074054;28;20178;-82
2021/07/11 03:47:48;;;;;;;2.97;2.78;;;;;;;;;;5073538;28;20211;-83
2021/07/11 03:50:17;;;;;;;3.75;3.45;;;;;;;;;;5074378;28;20185;-82
2021/07/11 03:52:49;;;;;;;3.88;3.65;;;;;;;;;;5072882;28;20229;-82
2021/07/11 03:55:19;;;;;;;3.30;3.10;;;;;;;;;;5073343;28;20652;-82
2021/07/11 03:57:48;;;;;;;4.20;3.90;;;;;;;;;;5073822;28;20189;-82
2021/07/11 04:00:17;;;;;;;3.22;3.03;;;;;;;;;;5073140;28;20189;-82
2021/07/11 04:02:48;;;;;;;5.25;4.85;;;;;;;;;;5073221;28;20205;-82
2021/07/11 04:05:19;;;;;;;4.10;3.80;;;;;;;;;;5073223;28;20196;-82
2021/07/11 04:07:48;;;;;;;3.40;3.20;;;;;;;;;;5073188;28;20192;-82
2021/07/11 04:10:16;;;;;;;3.67;3.47;;;;;;;;;;5073235;28;20559;-82
2021/07/11 04:12:43;;;;;;;2.63;2.50;;;;;;;;;;5071908;28;20221;-82
2021/07/11 04:15:12;;;;;;;2.65;2.50;;;;;;;;;;5073299;28;20189;-82
2021/07/11 04:17:40;;;;;;;2.70;2.50;;;;;;;;;;5072888;28;20196;-81
2021/07/11 04:20:09;;;;;;;2.08;1.98;;;;;;;;;;5072934;28;20269;-82
2021/07/11 04:22:38;;;;;;;1.90;1.80;;;;;;;;;;5068053;28;20571;-82
2021/07/11 04:25:08;;;;;;;2.13;2.03;;;;;;;;;;5052960;28;20194;-82
2021/07/11 04:27:36;;;;;;;2.10;2.00;;;;;;;;;;5059727;28;20193;-82
2021/07/11 04:30:03;;;;;;;1.92;1.83;;;;;;;;;;5072798;28;20201;-82
2021/07/11 04:32:31;;;;;;;2.30;2.20;;;;;;;;;;5069095;28;20241;-82
2021/07/11 04:34:58;;;;;;;2.70;2.50;;;;;;;;;;5052407;28;20208;-83
2021/07/11 04:37:26;;;;;;;2.70;2.50;;;;;;;;;;5052870;28;20186;-84
2021/07/11 04:39:55;;;;;;;3.40;3.20;;;;;;;;;;5052394;28;20213;-82
2021/07/11 04:42:23;;;;;;;4.88;4.47;;;;;;;;;;5055479;28;20219;-82
2021/07/11 04:44:51;;;;;;;4.65;4.35;;;;;;;;;;5072754;28;20192;-83
2021/07/11 04:47:19;;;;;;;6.60;6.10;;;;;;;;;;5072475;28;20640;-82
2021/07/11 04:49:46;;;;;;;5.63;5.22;;;;;;;;;;5072188;28;20193;-84
2021/07/11 04:52:14;;;;;;;4.18;3.88;;;;;;;;;;5071875;28;20237;-82
2021/07/11 04:54:41;;;;;;;4.10;3.80;;;;;;;;;;5072298;28;20229;-82
2021/07/11 04:57:10;;;;;;;3.40;3.20;;;;;;;;;;5056082;28;20202;-83
2021/07/11 04:59:38;;;;;;;3.67;3.38;;;;;;;;;;5052782;28;20186;-82
2021/07/11 05:02:05;;;;;;;3.83;3.55;;;;;;;;;;5052646;28;20226;-83
2021/07/11 05:04:33;;;;;;;3.28;3.08;;;;;;;;;;5072710;28;20661;-82
2021/07/11 05:07:00;;;;;;;3.70;3.50;;;;;;;;;;5072487;28;20197;-83
2021/07/11 05:09:27;;;;;;;5.28;4.78;;;;;;;;;;5072624;28;20204;-83
2021/07/11 05:11:55;;;;;;;5.38;4.93;;;;;;;;;;5072657;28;20228;-83
2021/07/11 05:14:24;;;;;;;5.38;4.97;;;;;;;;;;5072835;28;20201;-83
2021/07/11 05:16:51;;;;;;;5.45;5.05;;;;;;;;;;5072879;28;20205;-82
2021/07/11 05:19:19;;;;;;;4.97;4.57;;;;;;;;;;5072895;28;20203;-83
2021/07/11 05:21:46;;;;;;;4.20;3.90;;;;;;;;;;5073044;28;20216;-82
2021/07/11 05:24:14;;;;;;;4.18;3.88;;;;;;;;;;5057058;28;20197;-83
2021/07/11 05:26:41;;;;;;;4.18;3.88;;;;;;;;;;5057871;28;20192;-83
2021/07/11 05:29:08;;;;;;;3.67;3.45;;;;;;;;;;5057232;28;20201;-83
2021/07/11 05:31:37;;;;;;;4.20;3.90;;;;;;;;;;5057158;28;20225;-83
2021/07/11 05:34:05;;;;;;;4.05;3.75;;;;;;;;;;5073864;28;20228;-83
2021/07/11 05:36:32;;;;;;;4.72;4.32;;;;;;;;;;5076120;28;20201;-83
2021/07/11 05:39:00;;;;;;;5.10;4.65;;;;;;;;;;5076817;28;20190;-83
2021/07/11 05:41:27;;;;;;;4.40;4.10;;;;;;;;;;5076169;28;20216;-83
2021/07/11 05:43:55;;;;;;;3.55;3.35;;;;;;;;;;5075812;28;20189;-83
2021/07/11 05:46:22;;;;;;;4.00;3.70;;;;;;;;;;5075577;28;20732;-83
2021/07/11 05:48:51;;;;;;;5.05;4.65;;;;;;;;;;5075697;28;20193;-83
2021/07/11 05:51:18;;;;;;;6.15;5.68;;;;;;;;;;5075309;28;20694;-83
2021/07/11 05:53:46;;;;;;;5.43;5.03;;;;;;;;;;5074806;28;20666;-83
2021/07/11 05:56:13;;;;;;;4.70;4.30;;;;;;;;;;5075618;28;20705;-83
2021/07/11 05:58:41;;;;;;;3.63;3.42;;;;;;;;;;5075444;28;20201;-83
2021/07/11 06:01:08;;;;;;;5.28;4.78;;;;;;;;;;5075509;28;20568;-83
2021/07/11 06:03:36;;;;;;;4.75;4.35;;;;;;;;;;5062240;28;20305;-82
2021/07/11 06:06:05;;;;;;;5.22;4.82;;;;;;;;;;5055459;28;20651;-82
2021/07/11 06:08:33;;;;;;;6.50;5.97;;;;;;;;;;5057067;28;20186;-83
2021/07/11 06:11:01;;;;;;;6.05;5.55;;;;;;;;;;5055372;28;20186;-83
2021/07/11 06:13:28;;;;;;;5.00;4.60;;;;;;;;;;5067109;28;20193;-82
2021/07/11 06:15:56;;;;;;;5.35;4.95;;;;;;;;;;5074877;28;20192;-82
2021/07/11 06:18:23;;;;;;;5.75;5.18;;;;;;;;;;5074614;28;20292;-82
2021/07/11 06:20:51;;;;;;;3.60;3.40;;;;;;;;;;5074880;28;20674;-82
2021/07/11 06:23:20;;;;;;;3.80;3.50;;;;;;;;;;5064559;28;20214;-83
2021/07/11 06:25:47;;;;;;;4.53;4.22;;;;;;;;;;5071254;28;20655;-82
2021/07/11 06:28:14;;;;;;;4.30;4.00;;;;;;;;;;5074019;28;20201;-83
2021/07/11 06:30:42;;;;;;;4.63;4.28;;;;;;;;;;5074728;28;20205;-82
2021/07/11 06:33:09;;;;;;;4.00;3.70;;;;;;;;;;5065563;28;20213;-82
2021/07/11 06:35:37;;;;;;;5.78;5.38;;;;;;;;;;5070034;28;20213;-82
2021/07/11 06:38:05;;;;;;;5.95;4.68;;;;;;;;;;5074704;28;20205;-83
2021/07/11 06:40:33;;;;;;;3.80;3.50;;;;;;;;;;5074373;28;20209;-82
2021/07/11 06:43:01;;;;;;;4.47;4.15;;;;;;;;;;5066105;28;20296;-83
2021/07/11 06:45:28;;;;;;;6.20;5.70;;;;;;;;;;5054659;28;20612;-82
2021/07/11 06:47:56;;;;;;;5.20;4.80;;;;;;;;;;5054456;28;20201;-82
2021/07/11 06:50:23;;;;;;;4.40;4.10;;;;;;;;;;5054279;28;20690;-82
2021/07/11 06:52:51;;;;;;;4.63;4.22;;;;;;;;;;5053735;28;20236;-82
2021/07/11 06:55:19;;;;;;;3.97;3.70;;;;;;;;;;5053793;28;20279;-82
2021/07/11 06:57:48;;;;;;;4.90;4.60;;;;;;;;;;5053938;28;20206;-82
2021/07/11 07:00:17;;;;;;;4.22;3.92;;;;;;;;;;5054139;28;20210;-82
2021/07/11 07:02:45;;;;;;;5.65;5.25;;;;;;;;;;5058090;28;20213;-83
2021/07/11 07:05:13;;;;;;;6.70;5.70;;;;;;;;;;5075979;28;20185;-83
2021/07/11 07:07:43;;;;;;;8.45;6.38;;;;;;;;;;5074684;28;20181;-83
2021/07/11 07:10:14;;;;;;;5.45;5.05;;;;;;;;;;5074158;28;20283;-83
2021/07/11 07:12:42;;;;;;;4.35;4.05;;;;;;;;;;5075047;28;20236;-83
2021/07/11 07:15:13;;;;;;;5.13;4.72;;;;;;;;;;5074399;28;20758;-82
2021/07/11 07:17:41;;;;;;;5.70;5.20;;;;;;;;;;5074328;28;20190;-82
2021/07/11 07:20:10;;;;;;;5.50;5.10;;;;;;;;;;5075533;28;20553;-83
2021/07/11 07:22:39;;;;;;;5.68;5.28;;;;;;;;;;5075007;28;20224;-82
2021/07/11 07:25:09;;;;;;;5.35;4.85;;;;;;;;;;5075969;28;20201;-82
2021/07/11 07:27:37;;;;;;;6.13;5.63;;;;;;;;;;5075268;28;20174;-82
2021/07/11 07:30:06;;;;;;;4.85;4.55;;;;;;;;;;5075804;28;20185;-83
2021/07/11 07:32:34;;;;;;;5.82;5.32;;;;;;;;;;5076131;28;20225;-82
2021/07/11 07:35:02;;;;;;;5.13;4.72;;;;;;;;;;5055743;28;20221;-83
2021/07/11 07:37:30;;;;;;;5.47;5.07;;;;;;;;;;5074101;28;20190;-83
2021/07/11 07:39:59;;;;;;;6.22;5.72;;;;;;;;;;5075710;28;20189;-83
2021/07/11 07:42:26;;;;;;;6.30;5.80;;;;;;;;;;5075474;28;20303;-83
2021/07/11 07:44:54;;;;;;;5.10;4.70;;;;;;;;;;5075526;28;20181;-82
2021/07/11 07:47:21;;;;;;;4.05;3.75;;;;;;;;;;5074619;28;20196;-83
2021/07/11 07:49:50;;;;;;;4.40;4.10;;;;;;;;;;5073745;28;20188;-83
2021/07/11 07:52:18;;;;;;;5.53;5.13;;;;;;;;;;5073185;28;20243;-82
2021/07/11 07:54:45;;;;;;;4.40;4.10;;;;;;;;;;5073843;28;20219;-83
2021/07/11 07:57:12;;;;;;;5.40;4.90;;;;;;;;;;5074794;28;20224;-83
2021/07/11 07:59:40;;;;;;;4.45;4.15;;;;;;;;;;5074568;28;20580;-82
2021/07/11 08:02:07;;;;;;;5.32;4.93;;;;;;;;;;5075177;28;20225;-83
2021/07/11 08:04:35;;;;;;;4.63;4.32;;;;;;;;;;5075581;28;20209;-83
2021/07/11 08:07:04;;;;;;;3.97;3.67;;;;;;;;;;5073829;28;20216;-83
2021/07/11 08:09:31;;;;;;;3.60;3.40;;;;;;;;;;5074139;28;20536;-83
2021/07/11 08:11:59;;;;;;;4.03;3.72;;;;;;;;;;5074254;28;20225;-82
2021/07/11 08:14:27;;;;;;;5.70;5.28;;;;;;;;;;5075055;28;20207;-83
2021/07/11 08:16:57;;;;;;;4.65;4.35;;;;;;;;;;5075118;28;20655;-82
2021/07/11 08:19:25;;;;;;;4.97;4.57;;;;;;;;;;5075853;28;20190;-82
2021/07/11 08:21:53;;;;;;;4.13;3.83;;;;;;;;;;5076517;28;20304;-83
2021/07/11 08:24:23;;;;;;;3.95;3.65;;;;;;;;;;5076201;28;20205;-82
2021/07/11 08:26:51;;;;;;;6.32;5.88;;;;;;;;;;5075441;28;20197;-83
2021/07/11 08:29:18;;;;;;;6.85;6.25;;;;;;;;;;5075428;28;20239;-83
2021/07/11 08:31:46;;;;;;;7.18;6.47;;;;;;;;;;5075767;28;20224;-83
2021/07/11 08:34:13;;;;;;;7.03;6.43;;;;;;;;;;5076098;28;20201;-82
2021/07/11 08:36:41;;;;;;;7.68;7.07;;;;;;;;;;5076154;28;20217;-84
2021/07/11 08:39:08;;;;;;;9.63;8.85;;;;;;;;;;5076499;28;20193;-83
2021/07/11 08:41:38;;;;;;;9.13;8.43;;;;;;;;;;5075541;28;20208;-84
2021/07/11 08:44:06;;;;;;;8.90;8.10;;;;;;;;;;5076066;28;20185;-83
2021/07/11 08:46:34;;;;;;;6.88;6.28;;;;;;;;;;5075467;28;20215;-83
2021/07/11 08:49:01;;;;;;;7.70;7.10;;;;;;;;;;5075649;28;20201;-83
2021/07/11 08:51:29;;;;;;;7.22;6.55;;;;;;;;;;5075656;28;20605;-82
2021/07/11 08:53:57;;;;;;;9.05;8.27;;;;;;;;;;5076046;28;20212;-82
2021/07/11 08:56:27;;;;;;;10.45;9.50;;;;;;;;;;5076349;28;20208;-83
2021/07/11 08:58:58;;;;;;;10.75;9.82;;;;;;;;;;5075421;28;20205;-83
2021/07/11 09:01:28;;;;;;;8.45;7.65;;;;;;;;;;5075589;28;20224;-82
2021/07/11 09:04:04;;;;;;;9.45;8.65;;;;;;;;;;5075770;28;20194;-82
2021/07/11 09:06:47;;;;;;;9.57;8.77;;;;;;;;;;5076459;28;20195;-82
2021/07/11 09:09:25;;;;;;;9.60;8.80;;;;;;;;;;5075358;28;20246;-82
2021/07/11 09:11:55;;;;;;;8.38;7.53;;;;;;;;;;5075600;28;20220;-83
2021/07/11 09:14:26;;;;;;;8.63;7.93;;;;;;;;;;5075970;28;20636;-82
2021/07/11 09:16:57;;;;;;;8.07;7.30;;;;;;;;;;5075725;28;20197;-82
2021/07/11 09:19:28;;;;;;;10.63;9.80;;;;;;;;;;5075856;28;20624;-83
2021/07/11 09:21:58;;;;;;;10.70;9.82;;;;;;;;;;5075621;28;20312;-83
2021/07/11 09:24:27;;;;;;;10.43;9.57;;;;;;;;;;5076359;28;20189;-83
2021/07/11 09:27:04;;;;;;;9.43;8.73;;;;;;;;;;5076683;28;20197;-83
2021/07/11 09:29:34;;;;;;;8.85;8.02;;;;;;;;;;5076206;28;20208;-82
2021/07/11 09:32:01;;;;;;;8.63;7.85;;;;;;;;;;5076968;28;20224;-82
2021/07/11 09:34:33;;;;;;;9.00;8.20;;;;;;;;;;5075663;28;20201;-83
2021/07/11 09:37:11;;;;;;;9.50;8.70;;;;;;;;;;5076440;28;20223;-83
2021/07/11 09:39:50;;;;;;;8.70;7.90;;;;;;;;;;5076613;28;20241;-83
2021/07/11 09:42:26;;;;;;;7.43;6.85;;;;;;;;;;5074128;28;20209;-83
2021/07/11 09:44:55;;;;;;;8.98;8.25;;;;;;;;;;5075658;28;20192;-83
2021/07/11 09:47:27;;;;;;;8.45;7.75;;;;;;;;;;5075876;28;20216;-83
2021/07/11 09:50:05;;;;;;;8.45;7.65;;;;;;;;;;5075521;28;20546;-83
2021/07/11 09:52:33;;;;;;;9.23;8.35;;;;;;;;;;5074181;28;20710;-82
2021/07/11 09:55:07;;;;;;;8.15;7.55;;;;;;;;;;5072544;28;20190;-83
2021/07/11 09:57:36;;;;;;;8.63;7.72;;;;;;;;;;5073484;28;20202;-82
2021/07/11 10:00:13;;;;;;;8.30;7.50;;;;;;;;;;5071873;28;20204;-83
2021/07/11 10:02:41;;;;;;;8.63;7.93;;;;;;;;;;5074560;28;20232;-82
2021/07/11 10:05:11;;;;;;;8.93;8.10;;;;;;;;;;5073756;28;20201;-83
2021/07/11 10:07:39;;;;;;;7.32;6.68;;;;;;;;;;5073619;28;20216;-82
2021/07/11 10:10:10;;;;;;;6.72;6.13;;;;;;;;;;5074688;28;20207;-83
2021/07/11 10:12:38;;;;;;;9.30;8.48;;;;;;;;;;5078533;28;20239;-83
2021/07/11 10:15:12;;;;;;;7.80;7.20;;;;;;;;;;5078827;28;20200;-83
2021/07/11 10:17:44;;;;;;;7.70;7.05;;;;;;;;;;5078044;28;20221;-83
2021/07/11 10:20:14;;;;;;;7.90;7.20;;;;;;;;;;5079699;28;20193;-82
2021/07/11 10:22:46;;;;;;;8.85;7.97;;;;;;;;;;5076351;28;20213;-82
2021/07/11 10:25:17;;;;;;;8.05;7.40;;;;;;;;;;5076377;28;20196;-82
2021/07/11 10:27:46;;;;;;;8.40;7.70;;;;;;;;;;5057232;28;20558;-82
2021/07/11 10:30:16;;;;;;;7.95;7.30;;;;;;;;;;5058371;28;20193;-82
2021/07/11 10:32:44;;;;;;;6.40;5.90;;;;;;;;;;5056609;28;20225;-82
2021/07/11 10:35:19;;;;;;;7.10;6.43;;;;;;;;;;5054897;28;20186;-82
2021/07/11 10:37:52;;;;;;;8.27;7.57;;;;;;;;;;5056071;28;20225;-82
2021/07/11 10:40:30;;;;;;;8.07;7.38;;;;;;;;;;5073952;28;20190;-82
2021/07/11 10:42:58;;;;;;;5.85;5.45;;;;;;;;;;5074173;28;20221;-82
2021/07/11 10:45:27;;;;;;;6.22;5.72;;;;;;;;;;5073816;28;20681;-82
2021/07/11 10:48:05;;;;;;;7.18;6.32;;;;;;;;;;5074154;28;20725;-82
2021/07/11 10:50:33;;;;;;;6.85;6.28;;;;;;;;;;5074713;28;20204;-82
2021/07/11 10:53:02;;;;;;;6.50;6.00;;;;;;;;;;5074654;28;20227;-82
2021/07/11 10:55:40;;;;;;;6.65;6.15;;;;;;;;;;5074244;28;20354;-82
2021/07/11 10:58:15;;;;;;;5.07;4.68;;;;;;;;;;5074094;28;20303;-82
2021/07/11 11:00:46;;;;;;;7.38;6.78;;;;;;;;;;5074181;28;20185;-82
2021/07/11 11:03:19;;;;;;;9.30;8.43;;;;;;;;;;5054655;28;20222;-83
2021/07/11 11:05:48;;;;;;;9.15;8.35;;;;;;;;;;5073315;28;20193;-83
2021/07/11 11:08:19;;;;;;;7.72;7.03;;;;;;;;;;5074514;28;20177;-82
2021/07/11 11:10:48;;;;;;;7.60;6.97;;;;;;;;;;5074293;28;20205;-83
2021/07/11 11:13:25;;;;;;;8.40;7.70;;;;;;;;;;5074623;28;20232;-83
2021/07/11 11:15:56;;;;;;;8.52;7.78;;;;;;;;;;5074517;28;20185;-82
2021/07/11 11:18:27;;;;;;;7.68;6.95;;;;;;;;;;5073855;28;20208;-82
2021/07/11 11:21:03;;;;;;;8.05;7.28;;;;;;;;;;5073864;28;20189;-83
2021/07/11 11:23:35;;;;;;;7.47;6.72;;;;;;;;;;5073655;28;20197;-82
2021/07/11 11:26:03;;;;;;;6.43;5.93;;;;;;;;;;5074545;28;20189;-82
2021/07/11 11:28:35;;;;;;;6.13;5.63;;;;;;;;;;5073434;28;20199;-82
2021/07/11 11:31:23;;;;;;;6.25;5.68;;;;;;;;;;5073814;28;20203;-82
2021/07/11 11:33:58;;;;;;;6.65;5.95;;;;;;;;;;5073498;28;20189;-83
2021/07/11 11:36:29;;;;;;;4.68;4.28;;;;;;;;;;5073681;28;20181;-82
2021/07/11 11:39:00;;;;;;;5.97;5.43;;;;;;;;;;5073523;28;20582;-82
2021/07/11 11:41:28;;;;;;;6.00;5.50;;;;;;;;;;5073395;28;20225;-82
2021/07/11 11:44:08;;;;;;;4.72;4.43;;;;;;;;;;5073293;28;20192;-82
2021/07/11 11:46:37;;;;;;;4.13;3.83;;;;;;;;;;5053463;28;20198;-82
2021/07/11 11:49:07;;;;;;;7.15;6.55;;;;;;;;;;5053089;28;20178;-82
2021/07/11 11:51:42;;;;;;;5.95;5.45;;;;;;;;;;5053247;28;20234;-82
2021/07/11 11:54:10;;;;;;;5.05;4.65;;;;;;;;;;5054570;28;20563;-82
2021/07/11 11:56:38;;;;;;;5.60;5.10;;;;;;;;;;5053599;28;20238;-84
2021/07/11 11:59:07;;;;;;;6.55;5.95;;;;;;;;;;5053435;28;20189;-81
2021/07/11 12:01:37;;;;;;;6.80;6.20;;;;;;;;;;5053629;28;20209;-81
2021/07/11 12:04:10;;;;;;;6.30;5.80;;;;;;;;;;5058732;28;20197;-81
2021/07/11 12:06:39;;;;;;;6.20;5.70;;;;;;;;;;5073107;28;20185;-81
2021/07/11 12:09:07;;;;;;;6.07;5.57;;;;;;;;;;5086146;28;20199;-81
2021/07/11 12:11:35;;;;;;;6.82;6.28;;;;;;;;;;5093516;28;20217;-81
2021/07/11 12:14:08;;;;;;;8.55;7.15;;;;;;;;;;5093659;28;20659;-81
2021/07/11 12:16:37;;;;;;;8.60;7.80;;;;;;;;;;5093220;28;20639;-81
2021/07/11 12:19:07;;;;;;;5.80;5.32;;;;;;;;;;5094684;28;20237;-81
2021/07/11 12:21:38;;;;;;;6.97;6.38;;;;;;;;;;5095060;28;20225;-81
2021/07/11 12:24:09;;;;;;;8.88;8.07;;;;;;;;;;5093025;28;20188;-82
2021/07/11 12:26:40;;;;;;;8.60;7.75;;;;;;;;;;5093175;28;20231;-81
2021/07/11 12:29:09;;;;;;;9.60;8.25;;;;;;;;;;5093263;28;20596;-81
2021/07/11 12:31:39;;;;;;;9.70;8.80;;;;;;;;;;5093294;28;20216;-80
2021/07/11 12:34:09;;;;;;;10.30;9.20;;;;;;;;;;5092212;28;20184;-83
2021/07/11 12:36:39;;;;;;;10.27;9.30;;;;;;;;;;5093421;28;20188;-81
2021/07/11 12:39:18;;;;;;;10.95;9.90;;;;;;;;;;5093076;28;20212;-81
2021/07/11 12:41:45;;;;;;;10.70;9.70;;;;;;;;;;5092970;28;20220;-81
2021/07/11 12:44:14;;;;;;;10.70;9.65;;;;;;;;;;5091942;28;20203;-81
2021/07/11 12:46:43;;;;;;;9.90;9.00;;;;;;;;;;5072734;28;20185;-80
2021/07/11 12:49:13;;;;;;;9.95;9.02;;;;;;;;;;5072561;28;20189;-81
2021/07/11 12:51:42;;;;;;;9.77;8.88;;;;;;;;;;5072915;28;20233;-81
2021/07/11 12:54:14;;;;;;;10.45;9.45;;;;;;;;;;5072353;28;20738;-81
2021/07/11 12:56:52;;;;;;;11.20;10.23;;;;;;;;;;5072463;28;20181;-80
2021/07/11 12:59:28;;;;;;;10.93;9.82;;;;;;;;;;5072090;28;20772;-81
2021/07/11 13:02:09;;;;;;;9.93;9.02;;;;;;;;;;5072153;28;20772;-81
2021/07/11 13:04:39;;;;;;;7.40;6.80;;;;;;;;;;5072850;28;20658;-80
2021/07/11 13:07:08;;;;;;;6.85;6.25;;;;;;;;;;5072990;28;20188;-81
2021/07/11 13:09:40;;;;;;;7.85;7.05;;;;;;;;;;5072386;28;20196;-81
2021/07/11 13:12:08;;;;;;;6.03;5.53;;;;;;;;;;5072568;28;20275;-81
2021/07/11 13:14:52;;;;;;;4.18;3.88;;;;;;;;;;5072941;28;20178;-83
2021/07/11 13:17:34;;;;;;;2.25;2.15;;;;;;;;;;5073071;28;20205;-85
2021/07/11 13:20:15;;;;;;;1.92;1.83;;;;;;;;;;5069015;28;20201;-85
2021/07/11 13:22:58;;;;;;;1.80;1.35;;;;;;;;;;5071421;28;20229;-87
2021/07/11 13:25:43;;;;;;;1.20;1.10;;;;;;;;;;5072397;28;20209;-86
2021/07/11 13:28:12;;;;;;;1.63;1.55;;;;;;;;;;5071300;28;20200;-87
2021/07/11 13:31:13;;;;;;;1.00;1.00;;;;;;;;;;5066927;28;20200;-87
2021/07/11 13:33:52;;;;;;;0.80;0.80;;;;;;;;;;5070721;28;20728;-91
2021/07/11 13:36:46;;;;;;;0.60;0.60;;;;;;;;;;5072223;28;20196;-88
2021/07/11 13:39:23;;;;;;;0.80;0.80;;;;;;;;;;5072035;28;20247;-87
2021/07/11 13:41:57;;;;;;;1.20;1.10;;;;;;;;;;5071843;28;20252;-87
2021/07/11 13:44:36;;;;;;;1.20;1.10;;;;;;;;;;5072898;28;20268;-86
2021/07/11 13:47:40;;;;;;;1.00;1.00;;;;;;;;;;5076009;28;20201;-87
2021/07/11 13:50:20;;;;;;;3.00;1.63;;;;;;;;;;5076145;28;20189;-86
2021/07/11 13:53:31;;;;;;;0.80;0.80;;;;;;;;;;5075265;28;20224;-86
2021/07/11 13:56:16;;;;;;;0.98;0.98;;;;;;;;;;5075849;28;20207;-87
2021/07/11 13:59:17;;;;;;;1.10;1.10;;;;;;;;;;5075551;28;20213;-87
2021/07/11 14:02:04;;;;;;;0.80;0.80;;;;;;;;;;5075644;28;20324;-87
2021/07/11 14:04:54;;;;;;;1.27;1.27;;;;;;;;;;5075723;28;20201;-87
2021/07/11 14:07:25;;;;;;;0.85;0.85;;;;;;;;;;5075531;28;20193;-87
2021/07/11 14:09:54;;;;;;;0.85;0.85;;;;;;;;;;5075573;28;20229;-87
2021/07/11 14:12:37;;;;;;;1.65;1.40;;;;;;;;;;5075677;28;20217;-86
2021/07/11 14:18:51;;;;;;;1.10;1.10;;;;;;;;;;5075313;28;20204;-89
2021/07/11 14:22:14;;;;;;;1.30;1.20;;;;;;;;;;5075295;28;20248;-91
2021/07/11 14:25:03;;;;;;;1.33;1.25;;;;;;;;;;5055458;28;20214;-86
2021/07/11 14:31:33;;;;;;;1.20;1.20;;;;;;;;;;5053604;28;20304;-86
2021/07/11 14:34:31;;;;;;;1.50;1.40;;;;;;;;;;5068749;28;20220;-86
2021/07/11 14:37:00;;;;;;;1.48;1.48;;;;;;;;;;5075756;28;20209;-86
2021/07/11 14:39:28;;;;;;;1.67;1.58;;;;;;;;;;5075290;28;20266;-86
2021/07/11 14:42:08;;;;;;;1.33;1.33;;;;;;;;;;5075065;28;20213;-86
2021/07/11 14:44:42;;;;;;;2.28;2.13;;;;;;;;;;5075137;28;20227;-86
2021/07/11 14:47:59;;;;;;;1.95;1.85;;;;;;;;;;5075529;28;20188;-86
2021/07/11 14:50:31;;;;;;;1.30;1.30;;;;;;;;;;5075341;28;20192;-86
2021/07/11 14:53:12;;;;;;;1.70;1.60;;;;;;;;;;5075186;28;20217;-85
2021/07/11 14:55:40;;;;;;;1.70;1.60;;;;;;;;;;5074618;28;20208;-86
2021/07/11 14:58:17;;;;;;;1.70;1.60;;;;;;;;;;5075307;28;20208;-86
2021/07/11 15:00:53;;;;;;;1.40;1.30;;;;;;;;;;5075067;28;20635;-87
2021/07/11 15:03:29;;;;;;;1.17;1.17;;;;;;;;;;5075195;28;20247;-85
2021/07/11 15:06:03;;;;;;;1.38;1.38;;;;;;;;;;5075619;28;20216;-85
2021/07/11 15:08:48;;;;;;;1.70;1.52;;;;;;;;;;5076005;28;20643;-85
2021/07/11 15:11:17;;;;;;;1.33;1.23;;;;;;;;;;5076148;28;20185;-85
2021/07/11 15:13:47;;;;;;;1.48;1.40;;;;;;;;;;5075799;28;20189;-85